Cinque Terre — IUTV — position and weather

sailwx.info

Track history (hours):
 
Tides and Currents Weather Stations Pressure Air Temp Water Temp Dewpoint Dewpoint Depression Visibility Wind Speed Wind Dir Waves Ship Positions

Cinque Terre

Last reported at 2016-Aug-28 14:33 UTC. Time now 2016-Aug-28 22:24 UTC.
Position N 40°32' E 014°12'.

Length 15 m; draft 1 m.

Type: Passenger vessel. MMSI: 247208400.

Date/timePositionNaut miles runAvg speedWind from/ knotsBaromVisibWave heightAir tempDewpointWater temp
2016-Aug-28 14:33N 40°32' E 014°12'3 3.0
2016-Aug-28 13:26N 40°33' E 014°16'1 1.3
2016-Aug-28 12:33N 40°33' E 014°15'0 0.0
2016-Aug-28 11:33N 40°33' E 014°15'0 0.0
2016-Aug-28 10:33N 40°33' E 014°15'0 0.0
2016-Aug-28 08:32N 40°33' E 014°15'0 0.0
2016-Aug-26 14:33N 40°33' E 014°15'0 0.0
2016-Aug-26 10:23N 40°33' E 014°15'1 0.0
2016-Aug-25 13:30N 40°33' E 014°16'1 1.1
2016-Aug-25 12:26N 40°33' E 014°15'6 0.3
2016-Aug-24 15:33N 40°37' E 014°20'7 6.1
2016-Aug-24 14:20N 40°33' E 014°12'3 0.5
2016-Aug-24 08:10N 40°34' E 014°16'2 3.1
2016-Aug-24 07:33N 40°35' E 014°17'3 0.2
2016-Aug-23 15:13N 40°37' E 014°20'3 3.9
2016-Aug-23 14:33N 40°34' E 014°18'2 2.0
2016-Aug-23 13:33N 40°34' E 014°16'1 0.2
2016-Aug-23 08:08N 40°34' E 014°17'1 1.8
2016-Aug-23 07:33N 40°35' E 014°17'3 2.8
2016-Aug-23 06:33N 40°37' E 014°20'0 0.0
2016-Aug-22 16:33N 40°37' E 014°20'0 0.0
2016-Aug-22 15:33N 40°37' E 014°20'4 3.2
2016-Aug-22 14:13N 40°33' E 014°16'1 1.5
2016-Aug-22 13:33N 40°34' E 014°17'3 0.7
2016-Aug-22 08:33N 40°37' E 014°20'5 5.0
2016-Aug-22 07:33N 40°33' E 014°15'7 6.7
2016-Aug-22 06:33N 40°38' E 014°21'2 0.1
2016-Aug-21 16:28N 40°37' E 014°20'1 1.6
2016-Aug-21 15:33N 40°36' E 014°19'6 6.2
2016-Aug-21 14:33N 40°32' E 014°12'3 3.5
2016-Aug-21 13:33N 40°33' E 014°16'2 0.9
2016-Aug-21 11:31N 40°33' E 014°14'0 0.0
2016-Aug-21 10:33N 40°33' E 014°14'0 0.0
2016-Aug-21 09:33N 40°32' E 014°14'1 1.0
2016-Aug-21 08:31N 40°32' E 014°15'2 2.0
2016-Aug-21 07:33N 40°34' E 014°16'5 4.9
2016-Aug-21 06:33N 40°38' E 014°21'1 0.1
2016-Aug-20 16:33N 40°37' E 014°20'1 0.8
2016-Aug-20 15:33N 40°36' E 014°19'6 5.8
2016-Aug-20 14:31N 40°32' E 014°13'2 0.3
2016-Aug-20 09:19N 40°33' E 014°15'0 0.0
2016-Aug-20 08:34N 40°33' E 014°15'2 2.1
2016-Aug-20 07:34N 40°34' E 014°17'5 4.7
2016-Aug-20 06:28N 40°38' E 014°21'2 0.1
2016-Aug-19 16:33N 40°37' E 014°20'0 0.3
2016-Aug-19 15:33N 40°36' E 014°20'6 6.2
2016-Aug-19 14:32N 40°32' E 014°13'2 0.4
2016-Aug-19 08:27N 40°34' E 014°16'1 0.6
2016-Aug-19 07:33N 40°34' E 014°16'6 5.1
2016-Aug-19 06:28N 40°38' E 014°21'2 0.1
2016-Aug-18 16:33N 40°37' E 014°20'1 1.0
2016-Aug-18 15:33N 40°36' E 014°19'  
Track history (hours):
 
Tides and Currents Weather Stations Pressure Air Temp Water Temp Dewpoint Dewpoint Depression Visibility Wind Speed Wind Dir Waves Ship Positions

Cinque Terre

Last reported at 2016-Aug-28 14:33 UTC. Time now 2016-Aug-28 22:24 UTC.
Position N 40°32' E 014°12'.

Length 15 m; draft 1 m.

Type: Passenger vessel. MMSI: 247208400.

Date/timePositionNaut miles runAvg speedWind from/ knotsBaromVisibWave heightAir tempDewpointWater temp
2016-Aug-28 14:33N 40°32' E 014°12'3 3.0
2016-Aug-28 13:26N 40°33' E 014°16'1 1.3
2016-Aug-28 12:33N 40°33' E 014°15'0 0.0
2016-Aug-28 11:33N 40°33' E 014°15'0 0.0
2016-Aug-28 10:33N 40°33' E 014°15'0 0.0
2016-Aug-28 08:32N 40°33' E 014°15'0 0.0
2016-Aug-26 14:33N 40°33' E 014°15'0 0.0
2016-Aug-26 10:23N 40°33' E 014°15'1 0.0
2016-Aug-25 13:30N 40°33' E 014°16'1 1.1
2016-Aug-25 12:26N 40°33' E 014°15'6 0.3
2016-Aug-24 15:33N 40°37' E 014°20'7 6.1
2016-Aug-24 14:20N 40°33' E 014°12'3 0.5
2016-Aug-24 08:10N 40°34' E 014°16'2 3.1
2016-Aug-24 07:33N 40°35' E 014°17'3 0.2
2016-Aug-23 15:13N 40°37' E 014°20'3 3.9
2016-Aug-23 14:33N 40°34' E 014°18'2 2.0
2016-Aug-23 13:33N 40°34' E 014°16'1 0.2
2016-Aug-23 08:08N 40°34' E 014°17'1 1.8
2016-Aug-23 07:33N 40°35' E 014°17'3 2.8
2016-Aug-23 06:33N 40°37' E 014°20'0 0.0
2016-Aug-22 16:33N 40°37' E 014°20'0 0.0
2016-Aug-22 15:33N 40°37' E 014°20'4 3.2
2016-Aug-22 14:13N 40°33' E 014°16'1 1.5
2016-Aug-22 13:33N 40°34' E 014°17'3 0.7
2016-Aug-22 08:33N 40°37' E 014°20'5 5.0
2016-Aug-22 07:33N 40°33' E 014°15'7 6.7
2016-Aug-22 06:33N 40°38' E 014°21'2 0.1
2016-Aug-21 16:28N 40°37' E 014°20'1 1.6
2016-Aug-21 15:33N 40°36' E 014°19'6 6.2
2016-Aug-21 14:33N 40°32' E 014°12'3 3.5
2016-Aug-21 13:33N 40°33' E 014°16'2 0.9
2016-Aug-21 11:31N 40°33' E 014°14'0 0.0
2016-Aug-21 10:33N 40°33' E 014°14'0 0.0
2016-Aug-21 09:33N 40°32' E 014°14'1 1.0
2016-Aug-21 08:31N 40°32' E 014°15'2 2.0
2016-Aug-21 07:33N 40°34' E 014°16'5 4.9
2016-Aug-21 06:33N 40°38' E 014°21'1 0.1
2016-Aug-20 16:33N 40°37' E 014°20'1 0.8
2016-Aug-20 15:33N 40°36' E 014°19'6 5.8
2016-Aug-20 14:31N 40°32' E 014°13'2 0.3
2016-Aug-20 09:19N 40°33' E 014°15'0 0.0
2016-Aug-20 08:34N 40°33' E 014°15'2 2.1
2016-Aug-20 07:34N 40°34' E 014°17'5 4.7
2016-Aug-20 06:28N 40°38' E 014°21'2 0.1
2016-Aug-19 16:33N 40°37' E 014°20'0 0.3
2016-Aug-19 15:33N 40°36' E 014°20'6 6.2
2016-Aug-19 14:32N 40°32' E 014°13'2 0.4
2016-Aug-19 08:27N 40°34' E 014°16'1 0.6
2016-Aug-19 07:33N 40°34' E 014°16'6 5.1
2016-Aug-19 06:28N 40°38' E 014°21'2 0.1
2016-Aug-18 16:33N 40°37' E 014°20'1 1.0
2016-Aug-18 15:33N 40°36' E 014°19'  

Dump ship's entire track history